sensor_id;sensor_type;location;lat;lon;timestamp;temperature;humidity
26103;DHT22;32703;49.182;9.042;2022-10-26T00:00:46;12.00;99.90
26103;DHT22;32703;49.182;9.042;2022-10-26T00:03:12;12.10;99.90
26103;DHT22;32703;49.182;9.042;2022-10-26T00:05:38;12.20;99.90
26103;DHT22;32703;49.182;9.042;2022-10-26T00:08:04;12.10;99.90
26103;DHT22;32703;49.182;9.042;2022-10-26T00:10:30;12.20;99.90
26103;DHT22;32703;49.182;9.042;2022-10-26T00:12:57;12.20;99.90
26103;DHT22;32703;49.182;9.042;2022-10-26T00:15:23;12.30;99.90
26103;DHT22;32703;49.182;9.042;2022-10-26T00:17:49;12.30;99.90
26103;DHT22;32703;49.182;9.042;2022-10-26T00:20:15;12.30;99.90
26103;DHT22;32703;49.182;9.042;2022-10-26T00:22:41;12.40;99.90
26103;DHT22;32703;49.182;9.042;2022-10-26T00:25:07;12.40;99.90
26103;DHT22;32703;49.182;9.042;2022-10-26T00:27:33;12.40;99.90
26103;DHT22;32703;49.182;9.042;2022-10-26T00:30:03;12.40;99.90
26103;DHT22;32703;49.182;9.042;2022-10-26T00:32:29;12.40;99.90
26103;DHT22;32703;49.182;9.042;2022-10-26T00:34:55;12.30;99.90
26103;DHT22;32703;49.182;9.042;2022-10-26T00:37:20;12.30;99.90
26103;DHT22;32703;49.182;9.042;2022-10-26T00:39:46;12.30;99.90
26103;DHT22;32703;49.182;9.042;2022-10-26T00:42:17;12.40;99.90
26103;DHT22;32703;49.182;9.042;2022-10-26T00:47:17;12.40;99.90
26103;DHT22;32703;49.182;9.042;2022-10-26T00:49:46;12.60;99.90
26103;DHT22;32703;49.182;9.042;2022-10-26T00:52:14;12.40;99.90
26103;DHT22;32703;49.182;9.042;2022-10-26T00:54:42;12.40;99.90
26103;DHT22;32703;49.182;9.042;2022-10-26T00:57:09;12.50;99.90
26103;DHT22;32703;49.182;9.042;2022-10-26T00:59:35;12.30;99.90
26103;DHT22;32703;49.182;9.042;2022-10-26T01:02:01;12.30;99.90
26103;DHT22;32703;49.182;9.042;2022-10-26T01:04:27;12.30;99.90
26103;DHT22;32703;49.182;9.042;2022-10-26T01:06:53;12.20;99.90
26103;DHT22;32703;49.182;9.042;2022-10-26T01:09:19;12.20;99.90
26103;DHT22;32703;49.182;9.042;2022-10-26T01:11:45;12.20;99.90
26103;DHT22;32703;49.182;9.042;2022-10-26T01:14:13;12.20;99.90
26103;DHT22;32703;49.182;9.042;2022-10-26T01:17:09;12.20;99.90
26103;DHT22;32703;49.182;9.042;2022-10-26T01:31:14;12.30;99.90
26103;DHT22;32703;49.182;9.042;2022-10-26T01:33:53;12.20;99.90
26103;DHT22;32703;49.182;9.042;2022-10-26T01:36:33;12.20;99.90
26103;DHT22;32703;49.182;9.042;2022-10-26T01:39:14;12.30;99.90
26103;DHT22;32703;49.182;9.042;2022-10-26T01:41:49;12.30;99.90
26103;DHT22;32703;49.182;9.042;2022-10-26T01:44:35;12.30;99.90
26103;DHT22;32703;49.182;9.042;2022-10-26T01:47:06;12.30;99.90
26103;DHT22;32703;49.182;9.042;2022-10-26T01:49:37;12.30;99.90
26103;DHT22;32703;49.182;9.042;2022-10-26T01:52:04;12.30;99.90
26103;DHT22;32703;49.182;9.042;2022-10-26T01:54:29;12.30;99.90
26103;DHT22;32703;49.182;9.042;2022-10-26T01:57:00;12.30;99.90
26103;DHT22;32703;49.182;9.042;2022-10-26T02:00:01;12.40;99.90
26103;DHT22;32703;49.182;9.042;2022-10-26T02:05:09;12.50;99.90
26103;DHT22;32703;49.182;9.042;2022-10-26T02:07:55;12.50;99.90
26103;DHT22;32703;49.182;9.042;2022-10-26T02:15:38;12.40;99.90
26103;DHT22;32703;49.182;9.042;2022-10-26T02:20:45;12.40;99.90
26103;DHT22;32703;49.182;9.042;2022-10-26T02:23:11;12.40;99.90
26103;DHT22;32703;49.182;9.042;2022-10-26T02:25:48;12.40;99.90
26103;DHT22;32703;49.182;9.042;2022-10-26T02:28:19;12.40;99.90
26103;DHT22;32703;49.182;9.042;2022-10-26T02:30:49;12.30;99.90
26103;DHT22;32703;49.182;9.042;2022-10-26T02:33:17;12.40;99.90
26103;DHT22;32703;49.182;9.042;2022-10-26T02:35:49;12.40;99.90
26103;DHT22;32703;49.182;9.042;2022-10-26T02:38:16;12.30;99.90
26103;DHT22;32703;49.182;9.042;2022-10-26T02:40:46;12.40;99.90
26103;DHT22;32703;49.182;9.042;2022-10-26T02:43:14;12.40;99.90
26103;DHT22;32703;49.182;9.042;2022-10-26T02:45:45;12.40;99.90
26103;DHT22;32703;49.182;9.042;2022-10-26T02:48:12;12.50;99.90
26103;DHT22;32703;49.182;9.042;2022-10-26T02:50:54;12.40;99.90
26103;DHT22;32703;49.182;9.042;2022-10-26T02:53:33;12.50;99.90
26103;DHT22;32703;49.182;9.042;2022-10-26T02:56:03;12.40;99.90
26103;DHT22;32703;49.182;9.042;2022-10-26T02:58:33;12.40;99.90
26103;DHT22;32703;49.182;9.042;2022-10-26T03:01:02;12.40;99.90
26103;DHT22;32703;49.182;9.042;2022-10-26T03:03:28;12.40;99.90
26103;DHT22;32703;49.182;9.042;2022-10-26T03:05:54;12.40;99.90
26103;DHT22;32703;49.182;9.042;2022-10-26T03:08:20;12.40;99.90
26103;DHT22;32703;49.182;9.042;2022-10-26T03:10:45;12.40;99.90
26103;DHT22;32703;49.182;9.042;2022-10-26T03:13:12;12.40;99.90
26103;DHT22;32703;49.182;9.042;2022-10-26T03:15:38;12.40;99.90
26103;DHT22;32703;49.182;9.042;2022-10-26T03:18:04;12.40;99.90
26103;DHT22;32703;49.182;9.042;2022-10-26T03:20:30;12.40;99.90
26103;DHT22;32703;49.182;9.042;2022-10-26T03:22:56;12.30;99.90
26103;DHT22;32703;49.182;9.042;2022-10-26T03:25:23;12.20;99.90
26103;DHT22;32703;49.182;9.042;2022-10-26T03:27:56;12.30;99.90
26103;DHT22;32703;49.182;9.042;2022-10-26T03:30:21;12.30;99.90
26103;DHT22;32703;49.182;9.042;2022-10-26T03:32:47;12.30;99.90
26103;DHT22;32703;49.182;9.042;2022-10-26T03:35:13;12.40;99.90
26103;DHT22;32703;49.182;9.042;2022-10-26T03:37:38;12.40;99.90
26103;DHT22;32703;49.182;9.042;2022-10-26T03:40:04;12.40;99.90
26103;DHT22;32703;49.182;9.042;2022-10-26T03:42:35;12.40;99.90
26103;DHT22;32703;49.182;9.042;2022-10-26T03:45:00;12.40;99.90
26103;DHT22;32703;49.182;9.042;2022-10-26T03:47:26;12.40;99.90
26103;DHT22;32703;49.182;9.042;2022-10-26T03:49:51;12.40;99.90
26103;DHT22;32703;49.182;9.042;2022-10-26T03:52:17;12.40;99.90
26103;DHT22;32703;49.182;9.042;2022-10-26T03:54:42;12.30;99.90
26103;DHT22;32703;49.182;9.042;2022-10-26T03:57:08;12.40;99.90
26103;DHT22;32703;49.182;9.042;2022-10-26T03:59:33;12.40;99.90
26103;DHT22;32703;49.182;9.042;2022-10-26T04:01:59;12.40;99.90
26103;DHT22;32703;49.182;9.042;2022-10-26T04:04:24;12.40;99.90
26103;DHT22;32703;49.182;9.042;2022-10-26T04:06:50;12.40;99.90
26103;DHT22;32703;49.182;9.042;2022-10-26T04:09:16;12.40;99.90
26103;DHT22;32703;49.182;9.042;2022-10-26T04:11:41;12.40;99.90
26103;DHT22;32703;49.182;9.042;2022-10-26T04:14:07;12.40;99.90
26103;DHT22;32703;49.182;9.042;2022-10-26T04:16:32;12.40;99.90
26103;DHT22;32703;49.182;9.042;2022-10-26T04:18:58;12.30;99.90
26103;DHT22;32703;49.182;9.042;2022-10-26T04:21:23;12.30;99.90
26103;DHT22;32703;49.182;9.042;2022-10-26T04:23:49;12.30;99.90
26103;DHT22;32703;49.182;9.042;2022-10-26T04:26:14;12.20;99.90
26103;DHT22;32703;49.182;9.042;2022-10-26T04:28:40;12.30;99.90
26103;DHT22;32703;49.182;9.042;2022-10-26T04:31:06;12.30;99.90
26103;DHT22;32703;49.182;9.042;2022-10-26T04:33:31;12.20;99.90
26103;DHT22;32703;49.182;9.042;2022-10-26T04:36:00;12.20;99.90
26103;DHT22;32703;49.182;9.042;2022-10-26T04:38:26;12.20;99.90
26103;DHT22;32703;49.182;9.042;2022-10-26T04:40:52;12.20;99.90
26103;DHT22;32703;49.182;9.042;2022-10-26T04:43:17;12.20;99.90
26103;DHT22;32703;49.182;9.042;2022-10-26T04:45:43;12.30;99.90
26103;DHT22;32703;49.182;9.042;2022-10-26T04:48:10;12.30;99.90
26103;DHT22;32703;49.182;9.042;2022-10-26T04:50:36;12.30;99.90
26103;DHT22;32703;49.182;9.042;2022-10-26T04:53:04;12.30;99.90
26103;DHT22;32703;49.182;9.042;2022-10-26T04:55:30;12.30;99.90
26103;DHT22;32703;49.182;9.042;2022-10-26T04:57:55;12.30;99.90
26103;DHT22;32703;49.182;9.042;2022-10-26T05:00:21;12.30;99.90
26103;DHT22;32703;49.182;9.042;2022-10-26T05:02:46;12.30;99.90
26103;DHT22;32703;49.182;9.042;2022-10-26T05:05:12;12.30;99.90
26103;DHT22;32703;49.182;9.042;2022-10-26T05:07:38;12.30;99.90
26103;DHT22;32703;49.182;9.042;2022-10-26T05:10:04;12.20;99.90
26103;DHT22;32703;49.182;9.042;2022-10-26T05:12:30;12.20;99.90
26103;DHT22;32703;49.182;9.042;2022-10-26T05:14:55;12.20;99.90
26103;DHT22;32703;49.182;9.042;2022-10-26T05:17:24;12.20;99.90
26103;DHT22;32703;49.182;9.042;2022-10-26T05:19:50;12.20;99.90
26103;DHT22;32703;49.182;9.042;2022-10-26T05:22:20;12.20;99.90
26103;DHT22;32703;49.182;9.042;2022-10-26T05:24:46;12.20;99.90
26103;DHT22;32703;49.182;9.042;2022-10-26T05:27:11;12.30;99.90
26103;DHT22;32703;49.182;9.042;2022-10-26T05:29:37;12.30;99.90
26103;DHT22;32703;49.182;9.042;2022-10-26T05:32:02;12.30;99.90
26103;DHT22;32703;49.182;9.042;2022-10-26T05:34:28;12.30;99.90
26103;DHT22;32703;49.182;9.042;2022-10-26T05:36:53;12.40;99.90
26103;DHT22;32703;49.182;9.042;2022-10-26T05:39:20;12.50;99.90
26103;DHT22;32703;49.182;9.042;2022-10-26T05:41:45;12.50;99.90
26103;DHT22;32703;49.182;9.042;2022-10-26T05:44:11;12.50;99.90
26103;DHT22;32703;49.182;9.042;2022-10-26T05:46:36;12.50;99.90
26103;DHT22;32703;49.182;9.042;2022-10-26T05:49:02;12.40;99.90
26103;DHT22;32703;49.182;9.042;2022-10-26T05:51:27;12.50;99.90
26103;DHT22;32703;49.182;9.042;2022-10-26T05:53:53;12.50;99.90
26103;DHT22;32703;49.182;9.042;2022-10-26T05:56:23;12.50;99.90
26103;DHT22;32703;49.182;9.042;2022-10-26T05:58:58;12.50;99.90
26103;DHT22;32703;49.182;9.042;2022-10-26T06:07:06;12.50;99.90
26103;DHT22;32703;49.182;9.042;2022-10-26T06:09:34;12.50;99.90
26103;DHT22;32703;49.182;9.042;2022-10-26T06:12:00;12.60;99.90
26103;DHT22;32703;49.182;9.042;2022-10-26T06:14:26;12.60;99.90
26103;DHT22;32703;49.182;9.042;2022-10-26T06:28:46;12.50;99.90
26103;DHT22;32703;49.182;9.042;2022-10-26T06:31:14;12.50;99.90
26103;DHT22;32703;49.182;9.042;2022-10-26T06:33:40;12.60;99.90
26103;DHT22;32703;49.182;9.042;2022-10-26T06:36:21;12.60;99.90
26103;DHT22;32703;49.182;9.042;2022-10-26T06:38:51;12.60;99.90
26103;DHT22;32703;49.182;9.042;2022-10-26T06:41:18;12.70;99.90
26103;DHT22;32703;49.182;9.042;2022-10-26T06:43:45;12.70;99.90
26103;DHT22;32703;49.182;9.042;2022-10-26T06:48:53;12.70;99.90
26103;DHT22;32703;49.182;9.042;2022-10-26T06:51:21;12.80;99.90
26103;DHT22;32703;49.182;9.042;2022-10-26T06:53:58;12.80;99.90
26103;DHT22;32703;49.182;9.042;2022-10-26T06:56:24;12.80;99.90
26103;DHT22;32703;49.182;9.042;2022-10-26T06:58:52;12.80;99.90
26103;DHT22;32703;49.182;9.042;2022-10-26T07:01:19;12.80;99.90
26103;DHT22;32703;49.182;9.042;2022-10-26T07:03:44;12.80;99.90
26103;DHT22;32703;49.182;9.042;2022-10-26T07:06:10;12.90;99.90
26103;DHT22;32703;49.182;9.042;2022-10-26T07:08:36;12.90;99.90
26103;DHT22;32703;49.182;9.042;2022-10-26T07:11:01;12.90;99.90
26103;DHT22;32703;49.182;9.042;2022-10-26T07:13:28;12.90;99.90
26103;DHT22;32703;49.182;9.042;2022-10-26T07:15:54;12.90;99.90
26103;DHT22;32703;49.182;9.042;2022-10-26T07:18:19;12.90;99.90
26103;DHT22;32703;49.182;9.042;2022-10-26T07:20:45;13.00;99.90
26103;DHT22;32703;49.182;9.042;2022-10-26T07:23:10;13.00;99.90
26103;DHT22;32703;49.182;9.042;2022-10-26T07:25:36;13.10;99.90
26103;DHT22;32703;49.182;9.042;2022-10-26T07:28:05;13.10;99.90
26103;DHT22;32703;49.182;9.042;2022-10-26T07:30:31;13.20;99.90
26103;DHT22;32703;49.182;9.042;2022-10-26T07:33:08;13.20;99.90
26103;DHT22;32703;49.182;9.042;2022-10-26T07:35:34;13.30;99.90
26103;DHT22;32703;49.182;9.042;2022-10-26T07:38:00;13.30;99.90
26103;DHT22;32703;49.182;9.042;2022-10-26T07:40:26;13.40;99.90
26103;DHT22;32703;49.182;9.042;2022-10-26T07:42:55;13.40;99.90
26103;DHT22;32703;49.182;9.042;2022-10-26T07:45:20;13.50;99.90
26103;DHT22;32703;49.182;9.042;2022-10-26T07:47:46;13.50;99.90
26103;DHT22;32703;49.182;9.042;2022-10-26T07:50:13;13.60;99.90
26103;DHT22;32703;49.182;9.042;2022-10-26T07:52:39;13.70;99.90
26103;DHT22;32703;49.182;9.042;2022-10-26T07:55:07;13.70;99.90
26103;DHT22;32703;49.182;9.042;2022-10-26T07:57:33;13.70;99.90
26103;DHT22;32703;49.182;9.042;2022-10-26T07:59:58;13.80;99.90
26103;DHT22;32703;49.182;9.042;2022-10-26T08:02:24;13.80;99.90
26103;DHT22;32703;49.182;9.042;2022-10-26T08:04:49;13.90;99.90
26103;DHT22;32703;49.182;9.042;2022-10-26T08:07:15;13.90;99.90
26103;DHT22;32703;49.182;9.042;2022-10-26T08:09:41;14.00;99.90
26103;DHT22;32703;49.182;9.042;2022-10-26T08:12:06;14.10;99.90
26103;DHT22;32703;49.182;9.042;2022-10-26T08:14:32;14.10;99.90
26103;DHT22;32703;49.182;9.042;2022-10-26T08:16:57;14.20;99.90
26103;DHT22;32703;49.182;9.042;2022-10-26T08:19:23;14.20;99.90
26103;DHT22;32703;49.182;9.042;2022-10-26T08:21:48;14.20;99.90
26103;DHT22;32703;49.182;9.042;2022-10-26T08:24:14;14.20;99.90
26103;DHT22;32703;49.182;9.042;2022-10-26T08:26:40;14.30;99.90
26103;DHT22;32703;49.182;9.042;2022-10-26T08:29:06;14.40;99.90
26103;DHT22;32703;49.182;9.042;2022-10-26T08:31:31;14.50;99.90
26103;DHT22;32703;49.182;9.042;2022-10-26T08:33:57;14.50;99.90
26103;DHT22;32703;49.182;9.042;2022-10-26T08:36:25;14.60;99.90
26103;DHT22;32703;49.182;9.042;2022-10-26T08:38:51;14.70;99.90
26103;DHT22;32703;49.182;9.042;2022-10-26T08:44:26;14.80;99.90
26103;DHT22;32703;49.182;9.042;2022-10-26T08:47:01;14.90;99.90
26103;DHT22;32703;49.182;9.042;2022-10-26T08:49:35;14.90;99.90
26103;DHT22;32703;49.182;9.042;2022-10-26T08:52:04;14.90;99.90
26103;DHT22;32703;49.182;9.042;2022-10-26T08:54:38;15.00;99.90
26103;DHT22;32703;49.182;9.042;2022-10-26T08:57:21;15.00;99.90
26103;DHT22;32703;49.182;9.042;2022-10-26T09:02:32;15.30;99.90
26103;DHT22;32703;49.182;9.042;2022-10-26T09:04:58;15.40;99.90
26103;DHT22;32703;49.182;9.042;2022-10-26T09:11:01;15.80;99.90
26103;DHT22;32703;49.182;9.042;2022-10-26T09:13:34;15.90;99.90
26103;DHT22;32703;49.182;9.042;2022-10-26T09:26:13;16.60;99.90
26103;DHT22;32703;49.182;9.042;2022-10-26T09:28:40;16.80;99.90
26103;DHT22;32703;49.182;9.042;2022-10-26T09:31:12;17.00;99.90
26103;DHT22;32703;49.182;9.042;2022-10-26T09:33:39;17.10;99.90
26103;DHT22;32703;49.182;9.042;2022-10-26T09:36:19;17.20;99.90
26103;DHT22;32703;49.182;9.042;2022-10-26T09:39:23;17.30;99.90
26103;DHT22;32703;49.182;9.042;2022-10-26T09:41:56;17.50;99.90
26103;DHT22;32703;49.182;9.042;2022-10-26T09:49:57;18.10;99.90
26103;DHT22;32703;49.182;9.042;2022-10-26T09:52:23;18.40;99.90
26103;DHT22;32703;49.182;9.042;2022-10-26T09:54:48;18.60;99.90
26103;DHT22;32703;49.182;9.042;2022-10-26T09:57:15;18.80;99.90
26103;DHT22;32703;49.182;9.042;2022-10-26T09:59:44;19.00;99.90
26103;DHT22;32703;49.182;9.042;2022-10-26T10:02:35;19.10;99.90
26103;DHT22;32703;49.182;9.042;2022-10-26T10:05:01;19.30;99.90
26103;DHT22;32703;49.182;9.042;2022-10-26T10:07:27;19.40;99.90
26103;DHT22;32703;49.182;9.042;2022-10-26T10:10:19;19.60;99.90
26103;DHT22;32703;49.182;9.042;2022-10-26T10:12:46;19.80;99.90
26103;DHT22;32703;49.182;9.042;2022-10-26T10:17:52;20.20;99.90
26103;DHT22;32703;49.182;9.042;2022-10-26T10:20:22;20.20;99.90
26103;DHT22;32703;49.182;9.042;2022-10-26T10:22:53;20.20;99.90
26103;DHT22;32703;49.182;9.042;2022-10-26T10:25:33;20.30;99.90
26103;DHT22;32703;49.182;9.042;2022-10-26T10:27:59;20.50;99.90
26103;DHT22;32703;49.182;9.042;2022-10-26T10:30:30;20.70;99.90
26103;DHT22;32703;49.182;9.042;2022-10-26T10:33:10;20.80;99.90
26103;DHT22;32703;49.182;9.042;2022-10-26T10:35:39;21.00;99.90
26103;DHT22;32703;49.182;9.042;2022-10-26T10:38:20;21.20;99.90
26103;DHT22;32703;49.182;9.042;2022-10-26T10:40:55;21.20;99.90
26103;DHT22;32703;49.182;9.042;2022-10-26T10:43:22;21.40;99.90
26103;DHT22;32703;49.182;9.042;2022-10-26T10:45:50;21.30;99.90
26103;DHT22;32703;49.182;9.042;2022-10-26T10:48:27;21.40;99.90
26103;DHT22;32703;49.182;9.042;2022-10-26T10:50:59;21.50;99.90
26103;DHT22;32703;49.182;9.042;2022-10-26T10:53:43;21.50;99.80
26103;DHT22;32703;49.182;9.042;2022-10-26T11:01:35;21.70;99.80
26103;DHT22;32703;49.182;9.042;2022-10-26T11:06:55;22.00;98.40
26103;DHT22;32703;49.182;9.042;2022-10-26T11:09:26;22.00;98.00
26103;DHT22;32703;49.182;9.042;2022-10-26T11:11:56;22.10;98.00
26103;DHT22;32703;49.182;9.042;2022-10-26T11:14:32;22.30;97.60
26103;DHT22;32703;49.182;9.042;2022-10-26T11:17:07;22.40;96.80
26103;DHT22;32703;49.182;9.042;2022-10-26T11:19:58;22.60;95.80
26103;DHT22;32703;49.182;9.042;2022-10-26T11:22:28;22.70;95.60
26103;DHT22;32703;49.182;9.042;2022-10-26T11:25:10;22.90;95.20
26103;DHT22;32703;49.182;9.042;2022-10-26T11:27:44;23.00;94.90
26103;DHT22;32703;49.182;9.042;2022-10-26T11:30:18;22.90;94.00
26103;DHT22;32703;49.182;9.042;2022-10-26T11:40:55;22.10;94.40
26103;DHT22;32703;49.182;9.042;2022-10-26T11:46:04;21.80;94.90
26103;DHT22;32703;49.182;9.042;2022-10-26T11:48:39;21.80;95.20
26103;DHT22;32703;49.182;9.042;2022-10-26T11:54:06;22.00;95.70
26103;DHT22;32703;49.182;9.042;2022-10-26T11:56:40;22.20;95.30
26103;DHT22;32703;49.182;9.042;2022-10-26T11:59:23;22.50;95.10
26103;DHT22;32703;49.182;9.042;2022-10-26T12:02:01;22.80;94.30
26103;DHT22;32703;49.182;9.042;2022-10-26T12:04:32;22.90;93.90
26103;DHT22;32703;49.182;9.042;2022-10-26T12:07:01;23.00;93.50
26103;DHT22;32703;49.182;9.042;2022-10-26T12:09:33;22.90;93.00
26103;DHT22;32703;49.182;9.042;2022-10-26T12:20:20;23.40;91.80
26103;DHT22;32703;49.182;9.042;2022-10-26T12:22:58;23.30;91.00
26103;DHT22;32703;49.182;9.042;2022-10-26T12:25:23;23.30;91.30
26103;DHT22;32703;49.182;9.042;2022-10-26T12:27:52;23.40;90.30
26103;DHT22;32703;49.182;9.042;2022-10-26T12:35:35;23.60;89.80
26103;DHT22;32703;49.182;9.042;2022-10-26T12:43:34;22.90;90.10
26103;DHT22;32703;49.182;9.042;2022-10-26T12:48:47;22.40;90.90
26103;DHT22;32703;49.182;9.042;2022-10-26T12:56:29;22.20;91.90
26103;DHT22;32703;49.182;9.042;2022-10-26T13:01:53;22.10;91.90
26103;DHT22;32703;49.182;9.042;2022-10-26T13:07:15;22.30;92.60
26103;DHT22;32703;49.182;9.042;2022-10-26T13:09:45;22.40;92.50
26103;DHT22;32703;49.182;9.042;2022-10-26T13:12:13;22.30;91.70
26103;DHT22;32703;49.182;9.042;2022-10-26T13:14:52;22.10;91.90
26103;DHT22;32703;49.182;9.042;2022-10-26T13:17:24;22.10;92.10
26103;DHT22;32703;49.182;9.042;2022-10-26T13:19:55;22.00;92.40
26103;DHT22;32703;49.182;9.042;2022-10-26T13:22:21;22.10;92.90
26103;DHT22;32703;49.182;9.042;2022-10-26T13:24:54;22.10;92.50
26103;DHT22;32703;49.182;9.042;2022-10-26T13:27:22;22.20;92.50
26103;DHT22;32703;49.182;9.042;2022-10-26T13:32:32;22.30;93.00
26103;DHT22;32703;49.182;9.042;2022-10-26T13:35:00;22.50;93.00
26103;DHT22;32703;49.182;9.042;2022-10-26T13:37:29;22.50;92.90
26103;DHT22;32703;49.182;9.042;2022-10-26T13:39:57;22.60;92.90
26103;DHT22;32703;49.182;9.042;2022-10-26T13:42:38;22.60;92.30
26103;DHT22;32703;49.182;9.042;2022-10-26T13:45:08;22.50;92.10
26103;DHT22;32703;49.182;9.042;2022-10-26T13:47:42;22.40;92.20
26103;DHT22;32703;49.182;9.042;2022-10-26T13:50:15;22.20;92.40
26103;DHT22;32703;49.182;9.042;2022-10-26T13:52:44;22.10;92.70
26103;DHT22;32703;49.182;9.042;2022-10-26T14:03:29;21.90;93.70
26103;DHT22;32703;49.182;9.042;2022-10-26T14:05:55;21.70;93.90
26103;DHT22;32703;49.182;9.042;2022-10-26T14:08:21;21.90;94.10
26103;DHT22;32703;49.182;9.042;2022-10-26T14:10:55;21.80;94.30
26103;DHT22;32703;49.182;9.042;2022-10-26T14:13:23;21.80;94.40
26103;DHT22;32703;49.182;9.042;2022-10-26T14:15:51;21.80;94.30
26103;DHT22;32703;49.182;9.042;2022-10-26T14:18:23;21.80;94.50
26103;DHT22;32703;49.182;9.042;2022-10-26T14:21:02;21.70;94.40
26103;DHT22;32703;49.182;9.042;2022-10-26T14:23:55;21.70;93.90
26103;DHT22;32703;49.182;9.042;2022-10-26T14:26:38;21.70;94.00
26103;DHT22;32703;49.182;9.042;2022-10-26T14:29:17;21.70;93.90
26103;DHT22;32703;49.182;9.042;2022-10-26T14:31:44;21.60;94.10
26103;DHT22;32703;49.182;9.042;2022-10-26T14:34:11;21.50;94.30
26103;DHT22;32703;49.182;9.042;2022-10-26T14:36:51;21.50;94.60
26103;DHT22;32703;49.182;9.042;2022-10-26T14:39:38;21.60;94.90
26103;DHT22;32703;49.182;9.042;2022-10-26T14:42:29;21.50;93.70
26103;DHT22;32703;49.182;9.042;2022-10-26T14:44:56;21.40;93.90
26103;DHT22;32703;49.182;9.042;2022-10-26T14:47:27;21.30;94.10
26103;DHT22;32703;49.182;9.042;2022-10-26T14:49:53;21.40;94.20
26103;DHT22;32703;49.182;9.042;2022-10-26T14:52:27;21.40;94.00
26103;DHT22;32703;49.182;9.042;2022-10-26T14:55:17;21.30;94.30
26103;DHT22;32703;49.182;9.042;2022-10-26T14:57:45;21.30;94.70
26103;DHT22;32703;49.182;9.042;2022-10-26T15:00:24;21.20;95.00
26103;DHT22;32703;49.182;9.042;2022-10-26T15:02:53;21.20;95.40
26103;DHT22;32703;49.182;9.042;2022-10-26T15:05:27;21.10;95.60
26103;DHT22;32703;49.182;9.042;2022-10-26T15:07:54;21.10;95.70
26103;DHT22;32703;49.182;9.042;2022-10-26T15:15:55;21.00;96.60
26103;DHT22;32703;49.182;9.042;2022-10-26T15:20:50;20.90;96.80
26103;DHT22;32703;49.182;9.042;2022-10-26T15:23:16;20.80;96.90
26103;DHT22;32703;49.182;9.042;2022-10-26T15:25:53;20.70;97.20
26103;DHT22;32703;49.182;9.042;2022-10-26T15:28:55;20.60;97.40
26103;DHT22;32703;49.182;9.042;2022-10-26T15:33:42;20.30;98.10
26103;DHT22;32703;49.182;9.042;2022-10-26T15:36:11;20.20;98.40
26103;DHT22;32703;49.182;9.042;2022-10-26T15:38:41;20.10;98.70
26103;DHT22;32703;49.182;9.042;2022-10-26T15:43:53;19.80;99.60
26103;DHT22;32703;49.182;9.042;2022-10-26T15:46:29;19.70;99.90
26103;DHT22;32703;49.182;9.042;2022-10-26T15:48:57;19.60;99.90
26103;DHT22;32703;49.182;9.042;2022-10-26T15:51:23;19.50;99.90
26103;DHT22;32703;49.182;9.042;2022-10-26T15:53:49;19.40;99.90
26103;DHT22;32703;49.182;9.042;2022-10-26T15:56:16;19.20;99.90
26103;DHT22;32703;49.182;9.042;2022-10-26T15:58:43;19.20;99.90
26103;DHT22;32703;49.182;9.042;2022-10-26T16:01:19;19.10;99.90
26103;DHT22;32703;49.182;9.042;2022-10-26T16:03:46;18.90;99.90
26103;DHT22;32703;49.182;9.042;2022-10-26T16:06:29;18.90;99.90
26103;DHT22;32703;49.182;9.042;2022-10-26T16:08:57;18.80;99.90
26103;DHT22;32703;49.182;9.042;2022-10-26T16:11:24;18.80;99.90
26103;DHT22;32703;49.182;9.042;2022-10-26T16:13:50;18.70;99.90
26103;DHT22;32703;49.182;9.042;2022-10-26T16:16:17;18.60;99.90
26103;DHT22;32703;49.182;9.042;2022-10-26T16:18:44;18.50;99.90
26103;DHT22;32703;49.182;9.042;2022-10-26T16:21:18;18.40;99.90
26103;DHT22;32703;49.182;9.042;2022-10-26T16:23:52;18.40;99.90
26103;DHT22;32703;49.182;9.042;2022-10-26T16:26:18;18.30;99.90
26103;DHT22;32703;49.182;9.042;2022-10-26T16:28:44;18.10;99.90
26103;DHT22;32703;49.182;9.042;2022-10-26T16:31:12;18.00;99.90
26103;DHT22;32703;49.182;9.042;2022-10-26T16:33:37;17.90;99.90
26103;DHT22;32703;49.182;9.042;2022-10-26T16:36:04;17.80;99.90
26103;DHT22;32703;49.182;9.042;2022-10-26T16:38:31;17.70;99.90
26103;DHT22;32703;49.182;9.042;2022-10-26T16:41:23;17.60;99.90
26103;DHT22;32703;49.182;9.042;2022-10-26T16:43:48;17.50;99.90
26103;DHT22;32703;49.182;9.042;2022-10-26T16:46:19;17.30;99.90
26103;DHT22;32703;49.182;9.042;2022-10-26T16:48:46;17.20;99.90
26103;DHT22;32703;49.182;9.042;2022-10-26T16:51:14;17.10;99.90
26103;DHT22;32703;49.182;9.042;2022-10-26T16:53:41;17.00;99.90
26103;DHT22;32703;49.182;9.042;2022-10-26T16:56:15;16.90;99.90
26103;DHT22;32703;49.182;9.042;2022-10-26T16:58:41;16.80;99.90
26103;DHT22;32703;49.182;9.042;2022-10-26T17:01:08;16.70;99.90
26103;DHT22;32703;49.182;9.042;2022-10-26T17:03:34;16.60;99.90
26103;DHT22;32703;49.182;9.042;2022-10-26T17:06:05;16.50;99.90
26103;DHT22;32703;49.182;9.042;2022-10-26T17:08:32;16.30;99.90
26103;DHT22;32703;49.182;9.042;2022-10-26T17:11:06;16.20;99.90
26103;DHT22;32703;49.182;9.042;2022-10-26T17:13:36;16.10;99.90
26103;DHT22;32703;49.182;9.042;2022-10-26T17:16:05;16.00;99.90
26103;DHT22;32703;49.182;9.042;2022-10-26T17:18:31;15.90;99.90
26103;DHT22;32703;49.182;9.042;2022-10-26T17:20:56;15.80;99.90
26103;DHT22;32703;49.182;9.042;2022-10-26T17:23:22;15.70;99.90
26103;DHT22;32703;49.182;9.042;2022-10-26T17:25:48;15.60;99.90
26103;DHT22;32703;49.182;9.042;2022-10-26T17:28:13;15.60;99.90
26103;DHT22;32703;49.182;9.042;2022-10-26T17:30:39;15.50;99.90
26103;DHT22;32703;49.182;9.042;2022-10-26T17:33:04;15.40;99.90
26103;DHT22;32703;49.182;9.042;2022-10-26T17:35:31;15.30;99.90
26103;DHT22;32703;49.182;9.042;2022-10-26T17:37:57;15.20;99.90
26103;DHT22;32703;49.182;9.042;2022-10-26T17:40:23;15.10;99.90
26103;DHT22;32703;49.182;9.042;2022-10-26T17:42:49;15.10;99.90
26103;DHT22;32703;49.182;9.042;2022-10-26T17:45:14;15.00;99.90
26103;DHT22;32703;49.182;9.042;2022-10-26T17:47:40;15.00;99.90
26103;DHT22;32703;49.182;9.042;2022-10-26T17:50:06;14.90;99.90
26103;DHT22;32703;49.182;9.042;2022-10-26T17:52:32;14.80;99.90
26103;DHT22;32703;49.182;9.042;2022-10-26T17:54:57;14.80;99.90
26103;DHT22;32703;49.182;9.042;2022-10-26T17:57:23;14.80;99.90
26103;DHT22;32703;49.182;9.042;2022-10-26T17:59:49;14.70;99.90
26103;DHT22;32703;49.182;9.042;2022-10-26T18:02:14;14.60;99.90
26103;DHT22;32703;49.182;9.042;2022-10-26T18:04:40;14.60;99.90
26103;DHT22;32703;49.182;9.042;2022-10-26T18:07:05;14.50;99.90
26103;DHT22;32703;49.182;9.042;2022-10-26T18:09:31;14.50;99.90
26103;DHT22;32703;49.182;9.042;2022-10-26T18:11:57;14.40;99.90
26103;DHT22;32703;49.182;9.042;2022-10-26T18:14:22;14.40;99.90